createdAt,value
2022-10-23T07:41:17.199Z,13.60
2022-10-23T07:46:20.654Z,15.60
2022-10-23T07:51:24.062Z,13.10
2022-10-23T07:56:32.187Z,19.00
2022-10-23T08:01:39.166Z,15.90
2022-10-23T08:06:42.810Z,16.00
2022-10-23T08:11:46.217Z,15.90
2022-10-23T08:16:49.590Z,15.60
2022-10-23T08:21:55.013Z,18.10
2022-10-23T08:26:59.017Z,15.10
2022-10-23T08:32:02.534Z,17.00
2022-10-23T08:37:06.001Z,14.40
2022-10-23T08:42:21.346Z,13.80
2022-10-23T08:47:43.189Z,12.00
2022-10-23T08:52:46.632Z,25.70
2022-10-23T08:58:06.298Z,46.60
2022-10-23T09:03:12.788Z,38.30
2022-10-23T09:08:27.975Z,27.40
2022-10-23T09:14:18.905Z,27.80
2022-10-23T09:19:28.214Z,27.30
2022-10-23T09:24:33.725Z,31.50
2022-10-23T09:29:37.050Z,22.40
2022-10-23T09:34:53.649Z,26.80
2022-10-23T09:40:30.021Z,35.30
2022-10-23T09:45:35.716Z,38.10
2022-10-23T09:50:55.108Z,38.20
2022-10-23T09:56:08.188Z,18.60
2022-10-23T10:01:48.171Z,12.00
2022-10-23T10:06:59.642Z,19.40
2022-10-23T10:12:47.671Z,19.10
2022-10-23T10:18:38.671Z,17.20
2022-10-23T10:23:56.142Z,18.00
2022-10-23T10:29:19.416Z,18.50
2022-10-23T10:35:03.488Z,21.30
2022-10-23T10:40:31.533Z,17.60
2022-10-23T10:45:49.025Z,23.30
2022-10-23T10:51:06.162Z,23.20
2022-10-23T10:56:16.242Z,16.80
2022-10-23T11:02:00.238Z,27.10
2022-10-23T11:07:11.705Z,22.00
2022-10-23T11:12:28.436Z,22.70
2022-10-23T11:17:41.101Z,17.20
2022-10-23T11:23:02.802Z,17.10
2022-10-23T11:28:43.796Z,22.70
2022-10-23T11:34:32.285Z,13.80
2022-10-23T11:39:39.900Z,19.50
2022-10-23T11:44:50.903Z,19.80
2022-10-23T11:50:09.367Z,21.80
2022-10-23T11:55:24.596Z,27.20
2022-10-23T12:00:31.048Z,16.70
2022-10-23T12:05:41.864Z,23.90
2022-10-23T12:10:53.059Z,24.00
2022-10-23T12:15:59.941Z,25.70
2022-10-23T12:21:05.473Z,16.20
2022-10-23T12:26:30.067Z,18.90
2022-10-23T12:31:47.818Z,20.70
2022-10-23T12:37:32.789Z,17.50
2022-10-23T12:42:38.166Z,16.40
2022-10-23T12:47:45.470Z,17.70
2022-10-23T12:53:04.653Z,16.90
2022-10-23T12:58:34.174Z,19.50
2022-10-23T13:03:39.525Z,16.50
2022-10-23T13:08:47.826Z,18.10
2022-10-23T13:13:51.383Z,18.10
2022-10-23T13:18:55.023Z,15.70
2022-10-23T13:23:58.622Z,17.40
2022-10-23T13:29:08.870Z,16.50
2022-10-23T13:34:28.646Z,16.80
2022-10-23T13:39:34.338Z,28.00
2022-10-23T13:44:38.342Z,18.80
2022-10-23T13:49:41.819Z,22.90
2022-10-23T13:54:45.137Z,17.20
2022-10-23T13:59:48.541Z,16.60
2022-10-23T14:04:52.862Z,15.40
2022-10-23T14:09:56.137Z,16.60
2022-10-23T14:14:59.395Z,19.10
2022-10-23T14:20:06.106Z,18.30
2022-10-23T14:25:10.258Z,20.30
2022-10-23T14:30:14.682Z,15.70
2022-10-23T14:35:18.056Z,17.60
2022-10-23T14:40:21.886Z,20.60
2022-10-23T14:45:25.165Z,18.40
2022-10-23T14:50:28.738Z,19.20
2022-10-23T14:55:32.035Z,18.00
2022-10-23T15:00:35.300Z,22.90
2022-10-23T15:05:43.150Z,28.00
2022-10-23T15:10:46.692Z,23.10
2022-10-23T15:15:50.179Z,27.40
2022-10-23T15:20:53.802Z,34.20
2022-10-23T15:26:03.458Z,23.90
2022-10-23T15:31:06.822Z,23.40
2022-10-23T15:36:10.125Z,27.80
2022-10-23T15:41:22.807Z,28.50
2022-10-23T15:46:26.440Z,22.90
2022-10-23T15:51:29.739Z,34.90
2022-10-23T15:56:34.600Z,43.10
2022-10-23T16:01:38.137Z,34.30
2022-10-23T16:06:42.649Z,29.10
2022-10-23T16:11:45.960Z,30.10
2022-10-23T16:16:49.274Z,32.20
2022-10-23T16:21:52.582Z,27.30
2022-10-23T16:26:57.839Z,24.40
2022-10-23T16:32:01.187Z,21.20
2022-10-23T16:37:04.564Z,22.10
2022-10-23T16:42:08.025Z,20.30
2022-10-23T16:47:11.392Z,26.70
2022-10-23T16:52:14.911Z,17.20
2022-10-23T16:57:18.207Z,20.00
2022-10-23T17:02:21.689Z,21.80
2022-10-23T17:07:25.247Z,24.70
2022-10-23T17:12:28.660Z,23.00
2022-10-23T17:17:31.915Z,20.90
2022-10-23T17:22:36.215Z,21.20
2022-10-23T17:27:39.507Z,18.20
2022-10-23T17:32:43.053Z,20.70
2022-10-23T17:37:46.568Z,20.30
2022-10-23T17:42:49.871Z,21.60
2022-10-23T17:47:53.593Z,25.70
2022-10-23T17:52:56.846Z,29.70
2022-10-23T17:58:00.398Z,27.90
2022-10-23T18:03:05.332Z,26.60
2022-10-23T18:08:08.676Z,21.20
2022-10-23T18:13:12.001Z,21.90
2022-10-23T18:18:15.357Z,23.30
2022-10-23T18:23:18.718Z,18.80
2022-10-23T18:28:22.579Z,22.30
2022-10-23T18:33:26.798Z,20.40
2022-10-23T18:38:33.257Z,32.00
2022-10-23T18:43:43.785Z,24.30
2022-10-23T18:48:51.040Z,28.70
2022-10-23T18:53:54.781Z,26.50
2022-10-23T18:59:02.066Z,25.80
2022-10-23T19:04:06.023Z,25.90
2022-10-23T19:09:12.346Z,23.50
2022-10-23T19:14:15.895Z,27.10
2022-10-23T19:19:24.857Z,28.00
2022-10-23T19:24:44.128Z,25.80
2022-10-23T19:29:50.816Z,27.80
2022-10-23T19:34:54.210Z,25.80
2022-10-23T19:39:57.749Z,37.50
2022-10-23T19:45:01.365Z,31.40
2022-10-23T19:50:07.353Z,26.50
2022-10-23T19:55:11.505Z,26.90
2022-10-23T20:00:15.446Z,43.60
2022-10-23T20:05:18.810Z,24.30
2022-10-23T20:10:22.533Z,28.30
2022-10-23T20:15:25.786Z,28.70
2022-10-23T20:20:29.157Z,26.20
2022-10-23T20:25:32.381Z,22.50
2022-10-23T20:30:42.708Z,24.00
2022-10-23T20:35:46.093Z,23.90
2022-10-23T20:40:49.652Z,27.90
2022-10-23T20:45:53.301Z,25.60
2022-10-23T20:50:56.614Z,27.70
2022-10-23T20:56:00.038Z,27.20
2022-10-23T21:01:09.968Z,33.70
2022-10-23T21:06:16.257Z,31.90
2022-10-23T21:11:19.593Z,27.10
2022-10-23T21:16:30.068Z,29.30
2022-10-23T21:21:33.670Z,26.80
2022-10-23T21:26:37.257Z,28.00
2022-10-23T21:31:40.702Z,26.90
2022-10-23T21:37:07.488Z,29.00
2022-10-23T21:42:10.414Z,27.50
2022-10-23T21:47:14.017Z,24.50
2022-10-23T21:52:19.068Z,24.70
2022-10-23T21:57:23.270Z,23.60
2022-10-23T22:02:27.289Z,22.30
2022-10-23T22:07:30.713Z,23.30
2022-10-23T22:12:34.043Z,20.90
2022-10-23T22:17:37.333Z,22.40
2022-10-23T22:22:40.593Z,23.80
2022-10-23T22:27:44.022Z,23.30
2022-10-23T22:32:47.600Z,20.20
2022-10-23T22:37:51.096Z,19.80
2022-10-23T22:42:54.401Z,19.70
2022-10-23T22:47:57.762Z,17.70
2022-10-23T22:53:01.088Z,17.50
2022-10-23T22:58:04.390Z,18.10
2022-10-23T23:03:08.444Z,18.50
2022-10-23T23:08:13.741Z,18.60
2022-10-23T23:13:17.040Z,19.30
2022-10-23T23:18:21.682Z,19.60
2022-10-23T23:23:24.993Z,19.60
2022-10-23T23:28:28.340Z,20.90
2022-10-23T23:33:31.718Z,20.90
2022-10-23T23:38:37.485Z,21.10
2022-10-23T23:43:42.433Z,14.20
2022-10-23T23:48:48.812Z,17.80
2022-10-23T23:53:52.803Z,15.90
2022-10-23T23:58:58.040Z,15.70
